Date: 26-Jan-2563

SATR31 UTAA 260000
METAR UTAA 260000Z NIL=
METAR UTAK 260000Z NIL=
METAR UTAM 260000Z NIL=
METAR UTAT 260000Z NIL=
METAR UTAV 260000Z NIL=


......................................................................................


Date: 26-Jan-2563

SATH31 VTUD 260000
METAR VTUD 260000Z 00000KT 1800 BR NSC 19/18 Q1010 NOSIG=


......................................................................................


Date: 26-Jan-2563

SATH31 VTCC 260000
METAR VTCC 260000Z 00000KT 7000 NSC 12/09 Q1013 NOSIG=


......................................................................................


Date: 26-Jan-2563

SATH31 VTCP 260000
METAR VTCP 260000Z 00000KT 1000 BR NSC 11/10 Q1011 NOSIG=


......................................................................................


Date: 26-Jan-2563

SATH31 VTPB 260000
METAR VTPB 260000Z 00000KT 5000 BR FEW030 19/19 Q1011 BECMG 7000 NSW=


......................................................................................


Date: 26-Jan-2563

SAAE31 VDPP 260000
METAR VDPP 260000Z 16007KT 9000 FEW017 SCT040 24/23 Q1010=


......................................................................................


Date: 26-Jan-2563

SATH31 VTSE 260000
METAR VTSE 260000Z VRB02KT 7000 NSC 22/22 Q1011 NOSIG=


......................................................................................


Date: 26-Jan-2563

SAOM32 OOMS 260000
METAR OOMS 252350Z 24005KT 9999 SCT024 BKN090 22/17 Q1015 NOSIG=
METAR OOSA 252350Z 09004KT 9999 BKN025 25/21 Q1016 NOSIG=
METAR OOSH 260000Z NIL=
METAR OODQ 252350Z AUTO 18006KT //// R22///// NCD 19/18 Q1016 NOSIG=


......................................................................................


Date: 26-Jan-2563

SASD31 OEJD 260000
METAR OEDF 260000Z 30013KT 6000 NSC 11/M04 Q1021 NOSIG=
METAR OEDR 260000Z NIL=
METAR OEJN 260000Z NIL=
METAR OEMA 260000Z 07008KT CAVOK 09/M10 Q1028 NOSIG=
METAR OERK 260000Z 31011KT 7000 NSC 07/M06 Q1025 NOSIG=
METAR OERY 260000Z NIL=
METAR OYAA 260000Z NIL=
METAR OYSN 260000Z NIL=


......................................................................................


Date: 26-Jan-2563

SATH31 VTUU 260000
METAR VTUU 260000Z VRB02KT 8000 FEW030 BKN100 23/22 Q1011 NOSIG =


......................................................................................



New Window